This is the latest recevied packets stored in our database for station/object DB0LER. If no packets are shown the sender has not sent any packets the latest 24 hours.

If you compare the raw packets with similar data from other websites it may differ (especially the path), the reason is that we are not collecting packets from the same APRS-IS servers. Each APRS-IS server performes duplicate filtering, and which packet that is considered to be a duplicate may differ depending on which APRS-IS server you receive your data from.

1619008342: DB0LER>APRX29,DB0OL-10,DB0WOT,WIDE2*,qAR,DO5CO:!5313.29N/00726.95E#APRS-Digi Leer

1619008342: DB0LER>APRX29,DB0OL-10,DB0WOT,WIDE2*,qAR,DB0FS-10::DB0LER :PARM.Temp1,Temp2,Feuchte

1619008343: DB0LER>APRX29,DB0OL-10,DB0WOT,WIDE2*,qAR,DO5CO::DB0LER :UNIT.C,C,%

1619008343: DB0LER>APRX29,DB0OL-10,DB0WOT,WIDE2*,qAO,DB0OV-10::DB0LER :EQNS.0,0.1,0,0,0.1,0,0,0.1,0

1619008611: DB0LER>APRX29,TCPIP*,qAC,DB0GW:T#072,166.000003815,166,377,,, Testing

1619008652: DB0LER>APRX29,DB0PDF-10*,WIDE2-1,qAR,DB0EMS-5:T#072,166.000003815,166,377,,, Testing

1619008956: DB0LER>APRX29,TCPIP*,qAC,DB0GW:T#056,165.0,165,369,,, Testing

1619009690: DB0LER>APRX29,TCPIP*,qAC,DB0GW:!5313.29N/00726.95E#APRS-Digi Leer

1619009690: DB0LER>APRX29,TCPIP*,qAC,DB0GW:T#061,167.999992371,167,365,,, Testing

1619009690: DB0LER>APRX29,TCPIP*,qAC,DB0GW::DB0LER :EQNS.0,0.1,0,0,0.1,0,0,0.1,0

1619009690: DB0LER>APRX29,TCPIP*,qAC,DB0GW::DB0LER :UNIT.C,C,%

1619009690: DB0LER>APRX29,TCPIP*,qAC,DB0GW::DB0LER :PARM.Temp1,Temp2,Feuchte

1619009758: DB0LER>APRX29,DB0PDF-10*,WIDE2-1,qAR,DB0EMS-5::DB0LER :EQNS.0,0.1,0,0,0.1,0,0,0.1,0

1619009759: DB0LER>APRX29,DB0PDF-10*,WIDE2-1,qAR,DB0BI-10:T#061,167.999992371,167,365,,, Testing

1619010331: DB0LER>APRX29,TCPIP*,qAC,DB0GW:T#047,167.999992371,167,360,,, Testing

1619010931: DB0LER>APRX29,TCPIP*,qAC,DB0GW:T#039,168.999996185,168,349,,, Testing

1619011440: DB0LER>APRX29,TCPIP*,qAC,DB0GW:!5313.29N/00726.95E#APRS-Digi Leer

1619012845: DB0LER>APRX29,TCPIP*,qAC,DB0GW:T#002,167.999992371,167,347,,, Testing

1619012909: DB0LER>APRX29,TCPIP*,qAC,DB0GW:!5313.29N/00726.95E#APRS-Digi Leer

1619013140: DB0LER>APRX29,TCPIP*,qAC,DB0GW:T#070,168.999996185,168,339,,, Testing

1619013185: DB0LER>APRX29,TCPIP*,qAC,DB0GW::DB0LER :EQNS.0,0.1,0,0,0.1,0,0,0.1,0

1619013185: DB0LER>APRX29,TCPIP*,qAC,DB0GW::DB0LER :UNIT.C,C,%

1619013185: DB0LER>APRX29,TCPIP*,qAC,DB0GW::DB0LER :PARM.Temp1,Temp2,Feuchte

1619013217: DB0LER>APRX29,DB0PDF-10*,WIDE2-1,qAR,DB0EMS-5::DB0LER :UNIT.C,C,%

1619013217: DB0LER>APRX29,DB0PDF-10*,WIDE2-1,qAR,DB0EMS-5::DB0LER :PARM.Temp1,Temp2,Feuchte

Initial position
Current position
Ruler